sensor_id;sensor_type;location;lat;lon;timestamp;temperature;humidity
4602;DHT22;2313;48.552;9.370;2023-06-24T00:01:15;17.10;99.90
4602;DHT22;2313;48.552;9.370;2023-06-24T00:03:41;17.30;99.90
4602;DHT22;2313;48.552;9.370;2023-06-24T00:06:14;17.30;99.90
4602;DHT22;2313;48.552;9.370;2023-06-24T00:08:48;17.30;99.90
4602;DHT22;2313;48.552;9.370;2023-06-24T00:11:14;17.20;99.90
4602;DHT22;2313;48.552;9.370;2023-06-24T00:13:41;17.10;99.90
4602;DHT22;2313;48.552;9.370;2023-06-24T00:16:06;17.20;99.90
4602;DHT22;2313;48.552;9.370;2023-06-24T00:18:33;17.20;99.90
4602;DHT22;2313;48.552;9.370;2023-06-24T00:20:58;17.30;99.90
4602;DHT22;2313;48.552;9.370;2023-06-24T00:23:24;17.40;99.90
4602;DHT22;2313;48.552;9.370;2023-06-24T00:25:51;17.40;99.90
4602;DHT22;2313;48.552;9.370;2023-06-24T00:28:17;17.50;99.90
4602;DHT22;2313;48.552;9.370;2023-06-24T00:30:42;17.50;99.90
4602;DHT22;2313;48.552;9.370;2023-06-24T00:33:08;17.50;99.90
4602;DHT22;2313;48.552;9.370;2023-06-24T00:35:36;17.40;99.90
4602;DHT22;2313;48.552;9.370;2023-06-24T00:38:03;17.30;99.90
4602;DHT22;2313;48.552;9.370;2023-06-24T00:40:29;17.10;99.90
4602;DHT22;2313;48.552;9.370;2023-06-24T00:42:54;16.80;99.90
4602;DHT22;2313;48.552;9.370;2023-06-24T00:45:21;16.70;99.90
4602;DHT22;2313;48.552;9.370;2023-06-24T00:47:47;16.60;99.90
4602;DHT22;2313;48.552;9.370;2023-06-24T00:50:14;16.50;99.90
4602;DHT22;2313;48.552;9.370;2023-06-24T00:52:40;16.50;99.90
4602;DHT22;2313;48.552;9.370;2023-06-24T00:55:12;16.50;99.90
4602;DHT22;2313;48.552;9.370;2023-06-24T00:57:43;16.50;99.90
4602;DHT22;2313;48.552;9.370;2023-06-24T01:00:10;16.50;99.90
4602;DHT22;2313;48.552;9.370;2023-06-24T01:02:40;16.40;99.90
4602;DHT22;2313;48.552;9.370;2023-06-24T01:05:08;16.30;99.90
4602;DHT22;2313;48.552;9.370;2023-06-24T01:07:35;16.40;99.90
4602;DHT22;2313;48.552;9.370;2023-06-24T01:10:03;16.50;99.90
4602;DHT22;2313;48.552;9.370;2023-06-24T01:12:33;16.70;99.90
4602;DHT22;2313;48.552;9.370;2023-06-24T01:14:58;16.80;99.90
4602;DHT22;2313;48.552;9.370;2023-06-24T01:17:30;16.90;99.90
4602;DHT22;2313;48.552;9.370;2023-06-24T01:22:55;16.80;99.90
4602;DHT22;2313;48.552;9.370;2023-06-24T01:28:07;16.50;99.90
4602;DHT22;2313;48.552;9.370;2023-06-24T01:33:31;16.70;99.90
4602;DHT22;2313;48.552;9.370;2023-06-24T01:35:58;16.50;99.90
4602;DHT22;2313;48.552;9.370;2023-06-24T01:38:31;16.40;99.90
4602;DHT22;2313;48.552;9.370;2023-06-24T01:41:02;16.20;99.90
4602;DHT22;2313;48.552;9.370;2023-06-24T01:43:28;16.20;99.90
4602;DHT22;2313;48.552;9.370;2023-06-24T01:45:55;16.30;99.90
4602;DHT22;2313;48.552;9.370;2023-06-24T01:48:35;16.30;99.90
4602;DHT22;2313;48.552;9.370;2023-06-24T01:51:12;16.40;99.90
4602;DHT22;2313;48.552;9.370;2023-06-24T01:53:41;16.30;99.90
4602;DHT22;2313;48.552;9.370;2023-06-24T01:56:09;16.30;99.90
4602;DHT22;2313;48.552;9.370;2023-06-24T01:58:36;16.40;99.90
4602;DHT22;2313;48.552;9.370;2023-06-24T02:01:03;16.40;99.90
4602;DHT22;2313;48.552;9.370;2023-06-24T02:03:31;16.20;99.90
4602;DHT22;2313;48.552;9.370;2023-06-24T02:05:59;16.20;99.90
4602;DHT22;2313;48.552;9.370;2023-06-24T02:08:30;16.20;99.90
4602;DHT22;2313;48.552;9.370;2023-06-24T02:10:57;16.30;99.90
4602;DHT22;2313;48.552;9.370;2023-06-24T02:13:24;16.30;99.90
4602;DHT22;2313;48.552;9.370;2023-06-24T02:15:51;16.30;99.90
4602;DHT22;2313;48.552;9.370;2023-06-24T02:18:19;16.20;99.90
4602;DHT22;2313;48.552;9.370;2023-06-24T02:20:48;16.30;99.90
4602;DHT22;2313;48.552;9.370;2023-06-24T02:23:14;16.30;99.90
4602;DHT22;2313;48.552;9.370;2023-06-24T02:25:42;16.30;99.90
4602;DHT22;2313;48.552;9.370;2023-06-24T02:28:08;16.10;99.90
4602;DHT22;2313;48.552;9.370;2023-06-24T02:30:35;16.20;99.90
4602;DHT22;2313;48.552;9.370;2023-06-24T02:33:01;16.40;99.90
4602;DHT22;2313;48.552;9.370;2023-06-24T02:35:27;16.40;99.90
4602;DHT22;2313;48.552;9.370;2023-06-24T02:37:52;16.50;99.90
4602;DHT22;2313;48.552;9.370;2023-06-24T02:40:18;16.60;99.90
4602;DHT22;2313;48.552;9.370;2023-06-24T02:42:44;16.70;99.90
4602;DHT22;2313;48.552;9.370;2023-06-24T02:45:10;16.70;99.90
4602;DHT22;2313;48.552;9.370;2023-06-24T02:47:37;16.30;99.90
4602;DHT22;2313;48.552;9.370;2023-06-24T02:50:06;16.30;99.90
4602;DHT22;2313;48.552;9.370;2023-06-24T02:52:33;16.40;99.90
4602;DHT22;2313;48.552;9.370;2023-06-24T02:55:02;16.30;99.90
4602;DHT22;2313;48.552;9.370;2023-06-24T02:57:28;16.30;99.90
4602;DHT22;2313;48.552;9.370;2023-06-24T02:59:54;16.20;99.90
4602;DHT22;2313;48.552;9.370;2023-06-24T03:02:20;16.30;99.90
4602;DHT22;2313;48.552;9.370;2023-06-24T03:04:47;16.30;99.90
4602;DHT22;2313;48.552;9.370;2023-06-24T03:07:14;16.10;99.90
4602;DHT22;2313;48.552;9.370;2023-06-24T03:09:40;16.20;99.90
4602;DHT22;2313;48.552;9.370;2023-06-24T03:12:06;16.00;99.90
4602;DHT22;2313;48.552;9.370;2023-06-24T03:14:32;15.90;99.90
4602;DHT22;2313;48.552;9.370;2023-06-24T03:16:57;15.90;99.90
4602;DHT22;2313;48.552;9.370;2023-06-24T03:19:23;16.00;99.90
4602;DHT22;2313;48.552;9.370;2023-06-24T03:21:48;16.10;99.90
4602;DHT22;2313;48.552;9.370;2023-06-24T03:24:14;16.10;99.90
4602;DHT22;2313;48.552;9.370;2023-06-24T03:26:40;16.10;99.90
4602;DHT22;2313;48.552;9.370;2023-06-24T03:29:06;15.90;99.90
4602;DHT22;2313;48.552;9.370;2023-06-24T03:31:32;15.80;99.90
4602;DHT22;2313;48.552;9.370;2023-06-24T03:33:58;15.70;99.90
4602;DHT22;2313;48.552;9.370;2023-06-24T03:36:24;15.70;99.90
4602;DHT22;2313;48.552;9.370;2023-06-24T03:38:50;15.60;99.90
4602;DHT22;2313;48.552;9.370;2023-06-24T03:41:16;15.50;99.90
4602;DHT22;2313;48.552;9.370;2023-06-24T03:43:41;15.50;99.90
4602;DHT22;2313;48.552;9.370;2023-06-24T03:46:07;15.70;99.90
4602;DHT22;2313;48.552;9.370;2023-06-24T03:48:33;15.90;99.90
4602;DHT22;2313;48.552;9.370;2023-06-24T03:51:00;16.00;99.90
4602;DHT22;2313;48.552;9.370;2023-06-24T03:53:25;16.20;99.90
4602;DHT22;2313;48.552;9.370;2023-06-24T03:55:51;16.30;99.90
4602;DHT22;2313;48.552;9.370;2023-06-24T03:58:16;16.50;99.90
4602;DHT22;2313;48.552;9.370;2023-06-24T04:00:43;16.60;99.90
4602;DHT22;2313;48.552;9.370;2023-06-24T04:03:10;16.60;99.90
4602;DHT22;2313;48.552;9.370;2023-06-24T04:05:35;16.80;99.90
4602;DHT22;2313;48.552;9.370;2023-06-24T04:08:01;16.90;99.90
4602;DHT22;2313;48.552;9.370;2023-06-24T04:10:29;16.90;99.90
4602;DHT22;2313;48.552;9.370;2023-06-24T04:12:54;17.00;99.90
4602;DHT22;2313;48.552;9.370;2023-06-24T04:15:20;16.80;99.90
4602;DHT22;2313;48.552;9.370;2023-06-24T04:17:45;16.90;99.90
4602;DHT22;2313;48.552;9.370;2023-06-24T04:20:11;17.00;99.90
4602;DHT22;2313;48.552;9.370;2023-06-24T04:22:40;17.20;99.90
4602;DHT22;2313;48.552;9.370;2023-06-24T04:25:06;17.20;99.90
4602;DHT22;2313;48.552;9.370;2023-06-24T04:27:33;17.30;99.90
4602;DHT22;2313;48.552;9.370;2023-06-24T04:29:59;17.30;99.90
4602;DHT22;2313;48.552;9.370;2023-06-24T04:32:25;17.10;99.90
4602;DHT22;2313;48.552;9.370;2023-06-24T04:34:52;16.90;99.90
4602;DHT22;2313;48.552;9.370;2023-06-24T04:37:18;16.60;99.90
4602;DHT22;2313;48.552;9.370;2023-06-24T04:39:44;16.50;99.90
4602;DHT22;2313;48.552;9.370;2023-06-24T04:42:09;16.40;99.90
4602;DHT22;2313;48.552;9.370;2023-06-24T04:44:36;16.30;99.90
4602;DHT22;2313;48.552;9.370;2023-06-24T04:47:01;16.30;99.90
4602;DHT22;2313;48.552;9.370;2023-06-24T04:49:27;16.30;99.90
4602;DHT22;2313;48.552;9.370;2023-06-24T04:51:53;16.20;99.90
4602;DHT22;2313;48.552;9.370;2023-06-24T04:54:18;16.20;99.90
4602;DHT22;2313;48.552;9.370;2023-06-24T04:56:44;16.20;99.90
4602;DHT22;2313;48.552;9.370;2023-06-24T04:59:11;16.10;99.90
4602;DHT22;2313;48.552;9.370;2023-06-24T05:01:36;16.20;99.90
4602;DHT22;2313;48.552;9.370;2023-06-24T05:04:02;16.30;99.90
4602;DHT22;2313;48.552;9.370;2023-06-24T05:06:28;16.30;99.90
4602;DHT22;2313;48.552;9.370;2023-06-24T05:08:53;16.30;99.90
4602;DHT22;2313;48.552;9.370;2023-06-24T05:11:19;16.30;99.90
4602;DHT22;2313;48.552;9.370;2023-06-24T05:13:45;16.30;99.90
4602;DHT22;2313;48.552;9.370;2023-06-24T05:16:10;16.30;99.90
4602;DHT22;2313;48.552;9.370;2023-06-24T05:18:36;16.50;99.90
4602;DHT22;2313;48.552;9.370;2023-06-24T05:21:01;16.50;99.90
4602;DHT22;2313;48.552;9.370;2023-06-24T05:23:27;16.60;99.90
4602;DHT22;2313;48.552;9.370;2023-06-24T05:25:53;16.60;99.90
4602;DHT22;2313;48.552;9.370;2023-06-24T05:28:18;16.70;99.90
4602;DHT22;2313;48.552;9.370;2023-06-24T05:30:45;16.80;99.90
4602;DHT22;2313;48.552;9.370;2023-06-24T05:33:11;16.90;99.90
4602;DHT22;2313;48.552;9.370;2023-06-24T05:35:36;16.90;99.90
4602;DHT22;2313;48.552;9.370;2023-06-24T05:38:05;17.00;99.90
4602;DHT22;2313;48.552;9.370;2023-06-24T05:40:31;17.10;99.90
4602;DHT22;2313;48.552;9.370;2023-06-24T05:42:56;17.10;99.90
4602;DHT22;2313;48.552;9.370;2023-06-24T05:45:22;17.20;99.90
4602;DHT22;2313;48.552;9.370;2023-06-24T05:47:47;17.30;99.90
4602;DHT22;2313;48.552;9.370;2023-06-24T05:50:13;17.60;99.90
4602;DHT22;2313;48.552;9.370;2023-06-24T05:52:39;17.70;99.90
4602;DHT22;2313;48.552;9.370;2023-06-24T05:55:04;17.80;99.90
4602;DHT22;2313;48.552;9.370;2023-06-24T05:57:30;17.90;99.90
4602;DHT22;2313;48.552;9.370;2023-06-24T05:59:56;18.20;99.90
4602;DHT22;2313;48.552;9.370;2023-06-24T06:02:22;18.30;99.90
4602;DHT22;2313;48.552;9.370;2023-06-24T06:04:47;18.50;99.90
4602;DHT22;2313;48.552;9.370;2023-06-24T06:07:13;18.70;99.90
4602;DHT22;2313;48.552;9.370;2023-06-24T06:09:38;18.80;99.90
4602;DHT22;2313;48.552;9.370;2023-06-24T06:12:05;18.90;99.90
4602;DHT22;2313;48.552;9.370;2023-06-24T06:14:30;19.10;99.90
4602;DHT22;2313;48.552;9.370;2023-06-24T06:16:56;19.20;99.90
4602;DHT22;2313;48.552;9.370;2023-06-24T06:19:22;19.30;99.90
4602;DHT22;2313;48.552;9.370;2023-06-24T06:21:49;19.50;99.90
4602;DHT22;2313;48.552;9.370;2023-06-24T06:24:14;19.70;99.90
4602;DHT22;2313;48.552;9.370;2023-06-24T06:26:44;19.80;99.90
4602;DHT22;2313;48.552;9.370;2023-06-24T06:29:13;19.90;99.90
4602;DHT22;2313;48.552;9.370;2023-06-24T06:31:38;20.00;99.90
4602;DHT22;2313;48.552;9.370;2023-06-24T06:34:05;20.10;99.90
4602;DHT22;2313;48.552;9.370;2023-06-24T06:36:30;20.20;99.90
4602;DHT22;2313;48.552;9.370;2023-06-24T06:38:56;20.30;99.90
4602;DHT22;2313;48.552;9.370;2023-06-24T06:41:22;20.40;99.90
4602;DHT22;2313;48.552;9.370;2023-06-24T06:43:53;20.60;99.90
4602;DHT22;2313;48.552;9.370;2023-06-24T06:46:19;20.60;99.90
4602;DHT22;2313;48.552;9.370;2023-06-24T06:48:45;20.70;99.90
4602;DHT22;2313;48.552;9.370;2023-06-24T06:51:13;20.80;99.90
4602;DHT22;2313;48.552;9.370;2023-06-24T06:53:39;20.90;99.90
4602;DHT22;2313;48.552;9.370;2023-06-24T06:56:04;20.90;99.90
4602;DHT22;2313;48.552;9.370;2023-06-24T06:58:30;21.00;99.90
4602;DHT22;2313;48.552;9.370;2023-06-24T07:00:55;21.10;99.90
4602;DHT22;2313;48.552;9.370;2023-06-24T07:03:21;21.20;99.90
4602;DHT22;2313;48.552;9.370;2023-06-24T07:05:47;21.30;99.90
4602;DHT22;2313;48.552;9.370;2023-06-24T07:08:12;21.40;99.90
4602;DHT22;2313;48.552;9.370;2023-06-24T07:10:38;21.40;99.90
4602;DHT22;2313;48.552;9.370;2023-06-24T07:13:04;21.60;99.90
4602;DHT22;2313;48.552;9.370;2023-06-24T07:15:29;21.60;99.90
4602;DHT22;2313;48.552;9.370;2023-06-24T07:17:55;21.80;99.90
4602;DHT22;2313;48.552;9.370;2023-06-24T07:20:21;21.90;99.90
4602;DHT22;2313;48.552;9.370;2023-06-24T07:22:47;22.00;99.90
4602;DHT22;2313;48.552;9.370;2023-06-24T07:25:13;22.10;99.90
4602;DHT22;2313;48.552;9.370;2023-06-24T07:27:39;22.10;99.90
4602;DHT22;2313;48.552;9.370;2023-06-24T07:30:05;22.10;99.90
4602;DHT22;2313;48.552;9.370;2023-06-24T07:32:31;22.00;98.90
4602;DHT22;2313;48.552;9.370;2023-06-24T07:34:57;22.10;99.90
4602;DHT22;2313;48.552;9.370;2023-06-24T07:37:23;22.10;99.90
4602;DHT22;2313;48.552;9.370;2023-06-24T07:39:48;22.20;99.90
4602;DHT22;2313;48.552;9.370;2023-06-24T07:42:14;22.20;99.90
4602;DHT22;2313;48.552;9.370;2023-06-24T07:44:45;22.30;99.90
4602;DHT22;2313;48.552;9.370;2023-06-24T07:47:10;22.40;99.90
4602;DHT22;2313;48.552;9.370;2023-06-24T07:49:36;22.60;99.80
4602;DHT22;2313;48.552;9.370;2023-06-24T07:52:02;22.60;99.60
4602;DHT22;2313;48.552;9.370;2023-06-24T07:54:27;22.70;99.90
4602;DHT22;2313;48.552;9.370;2023-06-24T07:56:53;22.70;99.00
4602;DHT22;2313;48.552;9.370;2023-06-24T07:59:19;22.80;99.20
4602;DHT22;2313;48.552;9.370;2023-06-24T08:01:44;23.00;99.60
4602;DHT22;2313;48.552;9.370;2023-06-24T08:04:10;23.10;98.60
4602;DHT22;2313;48.552;9.370;2023-06-24T08:06:35;23.10;99.80
4602;DHT22;2313;48.552;9.370;2023-06-24T08:09:01;23.30;98.00
4602;DHT22;2313;48.552;9.370;2023-06-24T08:11:26;23.40;98.10
4602;DHT22;2313;48.552;9.370;2023-06-24T08:13:52;23.60;98.70
4602;DHT22;2313;48.552;9.370;2023-06-24T08:16:18;23.70;97.90
4602;DHT22;2313;48.552;9.370;2023-06-24T08:18:45;23.50;96.40
4602;DHT22;2313;48.552;9.370;2023-06-24T08:21:11;23.30;96.40
4602;DHT22;2313;48.552;9.370;2023-06-24T08:23:37;23.10;95.70
4602;DHT22;2313;48.552;9.370;2023-06-24T08:26:02;23.00;96.10
4602;DHT22;2313;48.552;9.370;2023-06-24T08:28:28;23.20;95.80
4602;DHT22;2313;48.552;9.370;2023-06-24T08:30:54;23.40;94.70
4602;DHT22;2313;48.552;9.370;2023-06-24T08:33:19;23.80;95.40
4602;DHT22;2313;48.552;9.370;2023-06-24T08:35:45;24.00;95.80
4602;DHT22;2313;48.552;9.370;2023-06-24T08:38:10;23.90;94.80
4602;DHT22;2313;48.552;9.370;2023-06-24T08:40:36;23.80;95.20
4602;DHT22;2313;48.552;9.370;2023-06-24T08:43:05;23.90;95.50
4602;DHT22;2313;48.552;9.370;2023-06-24T08:45:31;23.80;95.50
4602;DHT22;2313;48.552;9.370;2023-06-24T08:47:58;23.80;94.80
4602;DHT22;2313;48.552;9.370;2023-06-24T08:50:27;24.10;94.70
4602;DHT22;2313;48.552;9.370;2023-06-24T08:52:56;24.40;96.00
4602;DHT22;2313;48.552;9.370;2023-06-24T08:55:23;24.50;92.90
4602;DHT22;2313;48.552;9.370;2023-06-24T08:57:52;24.40;93.50
4602;DHT22;2313;48.552;9.370;2023-06-24T09:00:18;24.60;92.70
4602;DHT22;2313;48.552;9.370;2023-06-24T09:02:43;24.40;92.60
4602;DHT22;2313;48.552;9.370;2023-06-24T09:05:09;24.70;92.90
4602;DHT22;2313;48.552;9.370;2023-06-24T09:07:35;25.00;93.40
4602;DHT22;2313;48.552;9.370;2023-06-24T09:10:00;25.40;92.70
4602;DHT22;2313;48.552;9.370;2023-06-24T09:12:26;25.60;90.50
4602;DHT22;2313;48.552;9.370;2023-06-24T09:14:52;25.80;90.90
4602;DHT22;2313;48.552;9.370;2023-06-24T09:17:19;25.90;90.90
4602;DHT22;2313;48.552;9.370;2023-06-24T09:19:48;26.00;90.20
4602;DHT22;2313;48.552;9.370;2023-06-24T09:22:13;26.40;90.50
4602;DHT22;2313;48.552;9.370;2023-06-24T09:24:44;26.40;89.90
4602;DHT22;2313;48.552;9.370;2023-06-24T09:27:13;26.30;89.00
4602;DHT22;2313;48.552;9.370;2023-06-24T09:29:40;25.80;88.00
4602;DHT22;2313;48.552;9.370;2023-06-24T09:32:06;25.70;89.20
4602;DHT22;2313;48.552;9.370;2023-06-24T09:34:32;25.50;87.70
4602;DHT22;2313;48.552;9.370;2023-06-24T09:36:59;25.90;87.70
4602;DHT22;2313;48.552;9.370;2023-06-24T09:39:26;26.20;88.60
4602;DHT22;2313;48.552;9.370;2023-06-24T09:41:58;26.60;86.60
4602;DHT22;2313;48.552;9.370;2023-06-24T09:44:24;27.00;85.40
4602;DHT22;2313;48.552;9.370;2023-06-24T09:46:51;27.40;85.00
4602;DHT22;2313;48.552;9.370;2023-06-24T09:49:17;27.40;81.80
4602;DHT22;2313;48.552;9.370;2023-06-24T09:51:45;27.30;81.00
4602;DHT22;2313;48.552;9.370;2023-06-24T09:54:13;27.40;84.00
4602;DHT22;2313;48.552;9.370;2023-06-24T09:56:45;27.70;80.80
4602;DHT22;2313;48.552;9.370;2023-06-24T09:59:12;27.90;81.10
4602;DHT22;2313;48.552;9.370;2023-06-24T10:01:43;28.30;81.90
4602;DHT22;2313;48.552;9.370;2023-06-24T10:04:14;27.80;81.90
4602;DHT22;2313;48.552;9.370;2023-06-24T10:06:40;28.10;81.30
4602;DHT22;2313;48.552;9.370;2023-06-24T10:09:06;28.20;78.50
4602;DHT22;2313;48.552;9.370;2023-06-24T10:11:32;28.50;79.00
4602;DHT22;2313;48.552;9.370;2023-06-24T10:13:58;28.90;81.40
4602;DHT22;2313;48.552;9.370;2023-06-24T10:16:23;29.10;76.70
4602;DHT22;2313;48.552;9.370;2023-06-24T10:18:49;29.20;73.70
4602;DHT22;2313;48.552;9.370;2023-06-24T10:21:15;29.20;74.80
4602;DHT22;2313;48.552;9.370;2023-06-24T10:23:53;29.30;75.50
4602;DHT22;2313;48.552;9.370;2023-06-24T10:26:26;28.60;74.50
4602;DHT22;2313;48.552;9.370;2023-06-24T10:34:42;29.40;73.70
4602;DHT22;2313;48.552;9.370;2023-06-24T10:37:11;29.60;72.20
4602;DHT22;2313;48.552;9.370;2023-06-24T10:42:36;30.10;72.90
4602;DHT22;2313;48.552;9.370;2023-06-24T10:50:09;30.10;70.50
4602;DHT22;2313;48.552;9.370;2023-06-24T10:52:42;30.20;71.40
4602;DHT22;2313;48.552;9.370;2023-06-24T10:55:09;30.30;69.30
4602;DHT22;2313;48.552;9.370;2023-06-24T10:57:34;30.40;68.30
4602;DHT22;2313;48.552;9.370;2023-06-24T11:00:02;30.40;67.90
4602;DHT22;2313;48.552;9.370;2023-06-24T11:02:28;30.40;69.10
4602;DHT22;2313;48.552;9.370;2023-06-24T11:04:56;30.50;68.70
4602;DHT22;2313;48.552;9.370;2023-06-24T11:07:24;30.70;68.80
4602;DHT22;2313;48.552;9.370;2023-06-24T11:09:50;30.80;68.90
4602;DHT22;2313;48.552;9.370;2023-06-24T11:12:16;30.80;73.40
4602;DHT22;2313;48.552;9.370;2023-06-24T11:14:42;30.80;69.40
4602;DHT22;2313;48.552;9.370;2023-06-24T11:17:09;31.00;72.00
4602;DHT22;2313;48.552;9.370;2023-06-24T11:19:35;31.00;70.10
4602;DHT22;2313;48.552;9.370;2023-06-24T11:22:05;31.20;68.40
4602;DHT22;2313;48.552;9.370;2023-06-24T11:24:32;31.30;66.80
4602;DHT22;2313;48.552;9.370;2023-06-24T11:26:57;31.30;69.60
4602;DHT22;2313;48.552;9.370;2023-06-24T11:29:23;31.60;68.90
4602;DHT22;2313;48.552;9.370;2023-06-24T11:31:50;31.40;66.50
4602;DHT22;2313;48.552;9.370;2023-06-24T11:34:16;30.20;64.20
4602;DHT22;2313;48.552;9.370;2023-06-24T11:36:42;29.90;66.90
4602;DHT22;2313;48.552;9.370;2023-06-24T11:39:07;30.10;65.20
4602;DHT22;2313;48.552;9.370;2023-06-24T11:41:33;30.40;65.30
4602;DHT22;2313;48.552;9.370;2023-06-24T11:43:59;30.50;64.80
4602;DHT22;2313;48.552;9.370;2023-06-24T11:46:29;30.70;65.40
4602;DHT22;2313;48.552;9.370;2023-06-24T11:49:05;30.60;63.70
4602;DHT22;2313;48.552;9.370;2023-06-24T11:51:31;30.50;64.20
4602;DHT22;2313;48.552;9.370;2023-06-24T11:54:04;30.50;66.00
4602;DHT22;2313;48.552;9.370;2023-06-24T11:56:37;30.50;64.60
4602;DHT22;2313;48.552;9.370;2023-06-24T12:01:44;30.00;65.40
4602;DHT22;2313;48.552;9.370;2023-06-24T12:04:13;29.90;64.50
4602;DHT22;2313;48.552;9.370;2023-06-24T12:06:40;29.30;62.70
4602;DHT22;2313;48.552;9.370;2023-06-24T12:09:06;28.90;63.30
4602;DHT22;2313;48.552;9.370;2023-06-24T12:11:32;28.40;61.10
4602;DHT22;2313;48.552;9.370;2023-06-24T12:13:57;28.40;61.60
4602;DHT22;2313;48.552;9.370;2023-06-24T12:16:23;28.60;61.20
4602;DHT22;2313;48.552;9.370;2023-06-24T12:18:50;28.80;60.90
4602;DHT22;2313;48.552;9.370;2023-06-24T12:21:15;29.00;61.70
4602;DHT22;2313;48.552;9.370;2023-06-24T12:23:41;28.90;65.40
4602;DHT22;2313;48.552;9.370;2023-06-24T12:26:07;28.90;62.00
4602;DHT22;2313;48.552;9.370;2023-06-24T12:28:32;28.90;64.10
4602;DHT22;2313;48.552;9.370;2023-06-24T12:30:58;29.00;61.50
4602;DHT22;2313;48.552;9.370;2023-06-24T12:33:24;29.10;60.90
4602;DHT22;2313;48.552;9.370;2023-06-24T12:35:49;29.10;59.60
4602;DHT22;2313;48.552;9.370;2023-06-24T12:38:15;29.20;61.00
4602;DHT22;2313;48.552;9.370;2023-06-24T12:40:41;29.20;59.40
4602;DHT22;2313;48.552;9.370;2023-06-24T12:43:07;29.30;59.20
4602;DHT22;2313;48.552;9.370;2023-06-24T12:45:32;29.20;59.80
4602;DHT22;2313;48.552;9.370;2023-06-24T12:47:58;29.20;60.40
4602;DHT22;2313;48.552;9.370;2023-06-24T12:50:25;29.20;59.60
4602;DHT22;2313;48.552;9.370;2023-06-24T12:52:51;29.00;60.00
4602;DHT22;2313;48.552;9.370;2023-06-24T12:55:16;28.90;59.50
4602;DHT22;2313;48.552;9.370;2023-06-24T12:57:42;28.80;61.90
4602;DHT22;2313;48.552;9.370;2023-06-24T13:00:08;28.90;59.40
4602;DHT22;2313;48.552;9.370;2023-06-24T13:02:35;28.40;58.70
4602;DHT22;2313;48.552;9.370;2023-06-24T13:05:01;28.20;59.30
4602;DHT22;2313;48.552;9.370;2023-06-24T13:07:26;28.30;59.10
4602;DHT22;2313;48.552;9.370;2023-06-24T13:09:52;28.40;60.00
4602;DHT22;2313;48.552;9.370;2023-06-24T13:12:17;28.50;60.10
4602;DHT22;2313;48.552;9.370;2023-06-24T13:14:43;28.60;59.00
4602;DHT22;2313;48.552;9.370;2023-06-24T13:17:09;28.60;59.50
4602;DHT22;2313;48.552;9.370;2023-06-24T13:19:34;28.70;60.00
4602;DHT22;2313;48.552;9.370;2023-06-24T13:22:00;28.90;60.70
4602;DHT22;2313;48.552;9.370;2023-06-24T13:24:25;29.00;60.00
4602;DHT22;2313;48.552;9.370;2023-06-24T13:26:51;29.00;59.20
4602;DHT22;2313;48.552;9.370;2023-06-24T13:29:17;29.00;58.90
4602;DHT22;2313;48.552;9.370;2023-06-24T13:31:45;29.00;58.60
4602;DHT22;2313;48.552;9.370;2023-06-24T13:34:10;28.90;58.20
4602;DHT22;2313;48.552;9.370;2023-06-24T13:36:37;29.00;57.00
4602;DHT22;2313;48.552;9.370;2023-06-24T13:39:07;28.70;56.90
4602;DHT22;2313;48.552;9.370;2023-06-24T13:41:33;28.90;59.50
4602;DHT22;2313;48.552;9.370;2023-06-24T13:44:00;28.80;58.30
4602;DHT22;2313;48.552;9.370;2023-06-24T13:46:26;28.80;58.20
4602;DHT22;2313;48.552;9.370;2023-06-24T13:48:52;28.90;57.90
4602;DHT22;2313;48.552;9.370;2023-06-24T13:51:18;28.90;58.90
4602;DHT22;2313;48.552;9.370;2023-06-24T13:53:45;28.90;59.70
4602;DHT22;2313;48.552;9.370;2023-06-24T13:56:10;28.90;59.20
4602;DHT22;2313;48.552;9.370;2023-06-24T13:58:36;28.80;59.10
4602;DHT22;2313;48.552;9.370;2023-06-24T14:01:02;28.90;57.70
4602;DHT22;2313;48.552;9.370;2023-06-24T14:03:28;28.80;57.50
4602;DHT22;2313;48.552;9.370;2023-06-24T14:05:54;28.80;57.50
4602;DHT22;2313;48.552;9.370;2023-06-24T14:08:19;28.80;57.40
4602;DHT22;2313;48.552;9.370;2023-06-24T14:10:45;28.90;57.70
4602;DHT22;2313;48.552;9.370;2023-06-24T14:13:10;28.90;58.30
4602;DHT22;2313;48.552;9.370;2023-06-24T14:15:36;29.00;58.60
4602;DHT22;2313;48.552;9.370;2023-06-24T14:18:02;28.90;58.10
4602;DHT22;2313;48.552;9.370;2023-06-24T14:20:28;29.00;58.20
4602;DHT22;2313;48.552;9.370;2023-06-24T14:22:53;29.00;57.70
4602;DHT22;2313;48.552;9.370;2023-06-24T14:25:19;28.90;58.30
4602;DHT22;2313;48.552;9.370;2023-06-24T14:27:44;28.80;59.20
4602;DHT22;2313;48.552;9.370;2023-06-24T14:30:11;28.90;58.90
4602;DHT22;2313;48.552;9.370;2023-06-24T14:32:37;28.80;58.30
4602;DHT22;2313;48.552;9.370;2023-06-24T14:35:03;28.90;58.30
4602;DHT22;2313;48.552;9.370;2023-06-24T14:37:29;28.80;59.20
4602;DHT22;2313;48.552;9.370;2023-06-24T14:39:54;28.80;59.20
4602;DHT22;2313;48.552;9.370;2023-06-24T14:42:20;28.80;57.10
4602;DHT22;2313;48.552;9.370;2023-06-24T14:44:45;28.80;56.70
4602;DHT22;2313;48.552;9.370;2023-06-24T14:47:11;28.70;57.00
4602;DHT22;2313;48.552;9.370;2023-06-24T14:49:37;28.60;57.30
4602;DHT22;2313;48.552;9.370;2023-06-24T14:52:02;28.40;58.00
4602;DHT22;2313;48.552;9.370;2023-06-24T14:54:28;28.50;58.60
4602;DHT22;2313;48.552;9.370;2023-06-24T14:56:53;28.60;59.40
4602;DHT22;2313;48.552;9.370;2023-06-24T14:59:19;28.50;59.40
4602;DHT22;2313;48.552;9.370;2023-06-24T15:01:45;28.60;60.00
4602;DHT22;2313;48.552;9.370;2023-06-24T15:04:10;28.60;59.70
4602;DHT22;2313;48.552;9.370;2023-06-24T15:06:36;28.50;60.30
4602;DHT22;2313;48.552;9.370;2023-06-24T15:09:01;28.40;60.00
4602;DHT22;2313;48.552;9.370;2023-06-24T15:11:27;28.30;60.50
4602;DHT22;2313;48.552;9.370;2023-06-24T15:13:53;28.40;59.80
4602;DHT22;2313;48.552;9.370;2023-06-24T15:16:18;28.40;59.50
4602;DHT22;2313;48.552;9.370;2023-06-24T15:18:45;28.40;60.00
4602;DHT22;2313;48.552;9.370;2023-06-24T15:21:11;28.50;60.20
4602;DHT22;2313;48.552;9.370;2023-06-24T15:23:37;28.40;59.10
4602;DHT22;2313;48.552;9.370;2023-06-24T15:26:02;28.40;59.50
4602;DHT22;2313;48.552;9.370;2023-06-24T15:28:28;28.40;59.20
4602;DHT22;2313;48.552;9.370;2023-06-24T15:30:55;28.50;57.70
4602;DHT22;2313;48.552;9.370;2023-06-24T15:33:20;28.40;58.10
4602;DHT22;2313;48.552;9.370;2023-06-24T15:35:46;28.40;59.30
4602;DHT22;2313;48.552;9.370;2023-06-24T15:38:11;28.20;58.50
4602;DHT22;2313;48.552;9.370;2023-06-24T15:40:39;28.20;58.80
4602;DHT22;2313;48.552;9.370;2023-06-24T15:43:06;28.30;59.10
4602;DHT22;2313;48.552;9.370;2023-06-24T15:45:32;28.10;59.20
4602;DHT22;2313;48.552;9.370;2023-06-24T15:47:58;28.10;59.00
4602;DHT22;2313;48.552;9.370;2023-06-24T15:50:23;28.00;58.00
4602;DHT22;2313;48.552;9.370;2023-06-24T15:52:49;27.90;57.90
4602;DHT22;2313;48.552;9.370;2023-06-24T15:55:14;27.90;59.10
4602;DHT22;2313;48.552;9.370;2023-06-24T15:57:40;27.90;58.80
4602;DHT22;2313;48.552;9.370;2023-06-24T16:00:06;27.80;57.60
4602;DHT22;2313;48.552;9.370;2023-06-24T16:02:32;27.80;58.30
4602;DHT22;2313;48.552;9.370;2023-06-24T16:04:57;27.70;58.40
4602;DHT22;2313;48.552;9.370;2023-06-24T16:07:23;27.70;58.80
4602;DHT22;2313;48.552;9.370;2023-06-24T16:09:48;27.80;58.30
4602;DHT22;2313;48.552;9.370;2023-06-24T16:12:14;27.70;59.20
4602;DHT22;2313;48.552;9.370;2023-06-24T16:14:41;27.70;59.10
4602;DHT22;2313;48.552;9.370;2023-06-24T16:17:07;27.70;59.20
4602;DHT22;2313;48.552;9.370;2023-06-24T16:19:32;27.70;58.50
4602;DHT22;2313;48.552;9.370;2023-06-24T16:21:58;27.60;58.60